createdAt,value
2022-08-26T00:00:35.721Z,97820.31
2022-08-26T00:03:39.369Z,97817.38
2022-08-26T00:06:42.645Z,97819.16
2022-08-26T00:09:50.031Z,97817.28
2022-08-26T00:12:52.099Z,97813.81
2022-08-26T00:15:54.141Z,97816.53
2022-08-26T00:18:56.388Z,97810.59
2022-08-26T00:21:58.433Z,97809.78
2022-08-26T00:25:00.551Z,97810.16
2022-08-26T00:28:02.518Z,97812.84
2022-08-26T00:31:04.978Z,97808.50
2022-08-26T00:34:09.340Z,97807.19
2022-08-26T00:37:15.690Z,97807.72
2022-08-26T00:40:21.567Z,97809.44
2022-08-26T00:43:25.115Z,97801.91
2022-08-26T00:46:29.562Z,97798.91
2022-08-26T00:49:40.391Z,97801.00
2022-08-26T00:52:44.053Z,97797.72
2022-08-26T00:55:46.275Z,97799.81
2022-08-26T00:58:48.572Z,97800.75
2022-08-26T01:01:51.840Z,97797.72
2022-08-26T01:04:58.131Z,97796.56
2022-08-26T01:07:59.935Z,97802.09
2022-08-26T01:11:02.679Z,97799.81
2022-08-26T01:14:07.158Z,97795.38
2022-08-26T01:17:09.753Z,97794.69
2022-08-26T01:20:30.451Z,97798.63
2022-08-26T01:23:42.338Z,97798.88
2022-08-26T01:26:47.431Z,97801.91
2022-08-26T01:29:51.833Z,97792.25
2022-08-26T01:32:58.422Z,97796.53
2022-08-26T01:36:01.049Z,97800.63
2022-08-26T01:39:05.890Z,97800.38
2022-08-26T01:42:11.916Z,97797.88
2022-08-26T01:45:19.761Z,97802.03
2022-08-26T01:48:26.085Z,97806.13
2022-08-26T01:51:31.684Z,97809.22
2022-08-26T01:54:34.418Z,97808.63
2022-08-26T01:57:36.663Z,97805.34
2022-08-26T02:00:38.563Z,97803.44
2022-08-26T02:04:10.338Z,97800.19
2022-08-26T02:07:12.677Z,97790.91
2022-08-26T02:10:15.303Z,97796.25
2022-08-26T02:13:17.295Z,97790.53
2022-08-26T02:16:22.790Z,97790.41
2022-08-26T02:19:34.437Z,97789.66
2022-08-26T02:22:36.280Z,97787.97
2022-08-26T02:25:46.623Z,97792.94
2022-08-26T02:29:10.562Z,97793.81
2022-08-26T02:32:14.868Z,97789.09
2022-08-26T02:35:24.012Z,97793.50
2022-08-26T02:38:26.260Z,97796.44
2022-08-26T02:41:29.206Z,97791.78
2022-08-26T02:44:34.903Z,97778.47
2022-08-26T02:47:37.566Z,97774.75
2022-08-26T02:50:40.132Z,97778.97
2022-08-26T02:53:42.487Z,97780.81
2022-08-26T02:56:45.628Z,97774.88
2022-08-26T02:59:47.852Z,97776.06
2022-08-26T03:02:50.917Z,97774.75
2022-08-26T03:05:54.242Z,97770.66
2022-08-26T03:08:56.952Z,97773.13
2022-08-26T03:12:00.844Z,97765.94
2022-08-26T03:15:13.152Z,97764.50
2022-08-26T03:18:21.221Z,97764.38
2022-08-26T03:21:23.265Z,97765.91
2022-08-26T03:24:26.773Z,97756.28
2022-08-26T03:27:28.829Z,97762.66
2022-08-26T03:30:44.664Z,97761.78
2022-08-26T03:33:48.588Z,97767.91
2022-08-26T03:36:52.077Z,97759.09
2022-08-26T03:39:54.765Z,97754.59
2022-08-26T03:42:56.933Z,97757.63
2022-08-26T03:45:58.917Z,97754.16
2022-08-26T03:49:02.108Z,97746.41
2022-08-26T03:52:04.581Z,97751.59
2022-08-26T03:55:08.685Z,97749.94
2022-08-26T03:58:10.696Z,97749.50
2022-08-26T04:01:16.261Z,97748.28
2022-08-26T04:04:18.587Z,97746.22
2022-08-26T04:07:33.400Z,97747.03
2022-08-26T04:10:38.428Z,97750.50
2022-08-26T04:13:40.507Z,97738.41
2022-08-26T04:16:43.777Z,97748.09
2022-08-26T04:19:45.740Z,97745.06
2022-08-26T04:22:48.698Z,97747.94
2022-08-26T04:25:50.589Z,97741.13
2022-08-26T04:28:54.837Z,97754.81
2022-08-26T04:31:56.696Z,97743.31
2022-08-26T04:34:58.677Z,97746.53
2022-08-26T04:38:03.294Z,97746.59
2022-08-26T04:41:15.589Z,97743.94
2022-08-26T04:44:19.049Z,97748.25
2022-08-26T04:47:21.147Z,97746.03
2022-08-26T04:50:23.955Z,97743.88
2022-08-26T04:53:27.319Z,97753.09
2022-08-26T04:56:34.065Z,97752.13
2022-08-26T04:59:39.268Z,97751.06
2022-08-26T05:02:41.674Z,97747.13
2022-08-26T05:05:46.494Z,97755.16
2022-08-26T05:08:48.549Z,97752.94
2022-08-26T05:11:52.067Z,97751.72
2022-08-26T05:14:54.494Z,97756.63
2022-08-26T05:17:59.297Z,97752.13
2022-08-26T05:21:03.966Z,97761.31
2022-08-26T05:24:06.516Z,97766.97
2022-08-26T05:27:11.814Z,97762.44
2022-08-26T05:30:15.232Z,97761.41
2022-08-26T05:33:18.435Z,97770.50
2022-08-26T05:36:22.711Z,97766.81
2022-08-26T05:39:24.847Z,97771.34
2022-08-26T05:42:26.825Z,97762.41
2022-08-26T05:45:29.265Z,97769.75
2022-08-26T05:48:31.182Z,97769.97
2022-08-26T05:51:36.681Z,97769.88
2022-08-26T05:54:41.761Z,97769.63
2022-08-26T05:57:44.478Z,97768.47
2022-08-26T06:00:47.285Z,97766.31
2022-08-26T06:03:52.037Z,97761.91
2022-08-26T06:06:56.333Z,97763.22
2022-08-26T06:10:21.346Z,97766.66
2022-08-26T06:13:24.618Z,97767.22
2022-08-26T06:16:26.676Z,97771.66
2022-08-26T06:19:33.132Z,97776.31
2022-08-26T06:22:54.931Z,97782.19
2022-08-26T06:25:56.966Z,97773.78
2022-08-26T06:28:59.852Z,97773.53
2022-08-26T06:32:04.523Z,97773.44
2022-08-26T06:35:06.931Z,97770.00
2022-08-26T06:38:14.842Z,97776.72
2022-08-26T06:41:18.519Z,97764.47
2022-08-26T06:44:21.960Z,97774.50
2022-08-26T06:47:24.013Z,97778.34
2022-08-26T06:50:26.741Z,97768.25
2022-08-26T06:53:29.791Z,97768.03
2022-08-26T06:56:41.287Z,97771.75
2022-08-26T06:59:43.442Z,97767.19
2022-08-26T07:02:46.222Z,97757.91
2022-08-26T07:05:50.336Z,97766.03
2022-08-26T07:09:04.197Z,97759.72
2022-08-26T07:12:06.977Z,97762.91
2022-08-26T07:15:10.341Z,97766.22
2022-08-26T07:18:12.277Z,97757.06
2022-08-26T07:21:18.200Z,97756.59
2022-08-26T07:24:20.294Z,97754.66
2022-08-26T07:27:22.771Z,97753.31
2022-08-26T07:30:25.816Z,97755.50
2022-08-26T07:33:29.119Z,97748.44
2022-08-26T07:36:32.802Z,97750.59
2022-08-26T07:39:34.977Z,97757.44
2022-08-26T07:42:36.895Z,97749.06
2022-08-26T07:45:38.857Z,97745.81
2022-08-26T07:48:40.917Z,97742.06
2022-08-26T07:51:49.410Z,97747.97
2022-08-26T07:54:51.385Z,97754.97
2022-08-26T07:57:53.571Z,97752.00
2022-08-26T08:00:55.684Z,97752.75
2022-08-26T08:04:00.633Z,97755.75
2022-08-26T08:07:04.292Z,97754.16
2022-08-26T08:10:11.456Z,97748.50
2022-08-26T08:13:14.399Z,97743.13
2022-08-26T08:16:16.983Z,97751.16
2022-08-26T08:19:18.897Z,97751.13
2022-08-26T08:22:23.947Z,97749.84
2022-08-26T08:25:26.968Z,97748.97
2022-08-26T08:28:29.130Z,97740.28
2022-08-26T08:31:55.732Z,97734.03
2022-08-26T08:34:56.577Z,97736.03
2022-08-26T08:37:58.952Z,97728.44
2022-08-26T08:41:01.075Z,97727.84
2022-08-26T08:44:11.224Z,97721.88
2022-08-26T08:47:29.860Z,97719.53
2022-08-26T08:50:35.413Z,97718.25
2022-08-26T08:53:41.958Z,97722.63
2022-08-26T08:56:53.156Z,97717.59
2022-08-26T09:00:05.867Z,97716.66
2022-08-26T09:03:26.653Z,97723.59
2022-08-26T09:06:28.643Z,97719.94
2022-08-26T09:09:35.569Z,97721.56
2022-08-26T09:12:37.416Z,97714.53
2022-08-26T09:15:46.984Z,97708.94
2022-08-26T09:18:59.284Z,97708.47
2022-08-26T09:22:04.628Z,97703.78
2022-08-26T09:25:11.966Z,97707.91
2022-08-26T09:28:18.229Z,97696.91
2022-08-26T09:31:29.640Z,97700.31
2022-08-26T09:34:31.973Z,97702.56
2022-08-26T09:37:42.307Z,97702.84
2022-08-26T09:40:58.967Z,97701.47
2022-08-26T09:44:21.857Z,97693.38
2022-08-26T09:47:38.254Z,97700.53
2022-08-26T09:50:54.912Z,97694.38
2022-08-26T09:54:03.318Z,97707.28
2022-08-26T09:57:16.428Z,97694.88
2022-08-26T10:00:30.525Z,97696.34
2022-08-26T10:03:35.035Z,97695.84
2022-08-26T10:06:41.807Z,97692.41
2022-08-26T10:09:44.575Z,97690.13
2022-08-26T10:13:15.255Z,97689.00
2022-08-26T10:16:48.660Z,97680.31
2022-08-26T10:20:09.858Z,97683.66
2022-08-26T10:23:29.273Z,97683.31
2022-08-26T10:26:53.489Z,97675.63
2022-08-26T10:30:02.323Z,97672.69
2022-08-26T10:33:10.761Z,97674.53
2022-08-26T10:36:47.035Z,97668.53
2022-08-26T10:40:02.722Z,97677.69
2022-08-26T10:43:10.965Z,97670.06
2022-08-26T10:46:17.682Z,97664.53
2022-08-26T10:49:20.860Z,97669.09
2022-08-26T10:52:29.375Z,97671.59
2022-08-26T10:55:43.947Z,97672.25
2022-08-26T10:59:12.451Z,97656.75
2022-08-26T11:02:24.781Z,97660.72
2022-08-26T11:05:27.245Z,97650.53
2022-08-26T11:08:29.969Z,97653.88
2022-08-26T11:11:41.841Z,97646.13
2022-08-26T11:14:58.419Z,97645.09
2022-08-26T11:18:08.302Z,97635.47
2022-08-26T11:21:50.702Z,97632.09
2022-08-26T11:24:52.896Z,97641.53
2022-08-26T11:28:00.676Z,97640.75
2022-08-26T11:31:04.669Z,97637.09
2022-08-26T11:34:08.710Z,97641.47
2022-08-26T11:37:14.993Z,97639.38
2022-08-26T11:40:38.737Z,97637.53
2022-08-26T11:43:41.243Z,97641.81
2022-08-26T11:47:01.498Z,97631.59
2022-08-26T11:50:23.802Z,97629.56
2022-08-26T11:53:28.019Z,97619.81
2022-08-26T11:56:34.965Z,97625.78
2022-08-26T11:59:40.089Z,97628.50
2022-08-26T12:02:42.799Z,97628.72
2022-08-26T12:05:47.567Z,97626.97
2022-08-26T12:08:50.647Z,97637.81
2022-08-26T12:11:57.930Z,97630.91
2022-08-26T12:15:23.091Z,97625.56
2022-08-26T12:18:33.135Z,97623.16
2022-08-26T12:21:36.658Z,97624.44
2022-08-26T12:24:47.042Z,97619.53
2022-08-26T12:27:53.546Z,97617.56
2022-08-26T12:31:26.094Z,97616.06
2022-08-26T12:34:28.518Z,97612.84
2022-08-26T12:37:34.989Z,97608.38
2022-08-26T12:40:43.786Z,97606.56
2022-08-26T12:43:46.476Z,97611.06
2022-08-26T12:46:49.804Z,97605.56
2022-08-26T12:50:06.434Z,97607.09
2022-08-26T12:53:22.947Z,97614.78
2022-08-26T12:56:25.149Z,97609.09
2022-08-26T12:59:35.226Z,97601.63
2022-08-26T13:02:40.478Z,97602.78
2022-08-26T13:05:42.820Z,97608.88
2022-08-26T13:08:45.781Z,97604.84
2022-08-26T13:11:48.567Z,97603.97
2022-08-26T13:14:51.450Z,97601.09
2022-08-26T13:17:53.552Z,97600.28
2022-08-26T13:21:00.437Z,97596.84
2022-08-26T13:24:12.602Z,97587.59
2022-08-26T13:27:15.583Z,97588.16
2022-08-26T13:30:17.732Z,97591.81
2022-08-26T13:33:21.633Z,97596.91
2022-08-26T13:36:27.536Z,97603.53
2022-08-26T13:39:29.596Z,97602.50
2022-08-26T13:42:31.573Z,97618.09
2022-08-26T13:45:33.620Z,97617.00
2022-08-26T13:48:35.804Z,97619.69
2022-08-26T13:51:39.631Z,97620.41
2022-08-26T13:54:41.853Z,97607.63
2022-08-26T13:57:44.090Z,97610.00
2022-08-26T14:00:46.301Z,97614.63
2022-08-26T14:03:49.088Z,97613.00
2022-08-26T14:06:51.540Z,97611.47
2022-08-26T14:09:53.661Z,97608.25
2022-08-26T14:12:56.697Z,97610.25
2022-08-26T14:16:01.649Z,97618.09
2022-08-26T14:19:05.486Z,97620.88
2022-08-26T14:22:07.438Z,97621.34
2022-08-26T14:25:12.128Z,97616.28
2022-08-26T14:28:14.326Z,97626.00
2022-08-26T14:31:17.360Z,97630.50
2022-08-26T14:34:19.459Z,97624.31
2022-08-26T14:37:21.933Z,97623.91
2022-08-26T14:40:25.125Z,97629.38
2022-08-26T14:43:27.713Z,97618.56
2022-08-26T14:46:32.628Z,97617.69
2022-08-26T14:49:35.017Z,97619.91
2022-08-26T14:52:56.883Z,97624.53
2022-08-26T14:55:58.960Z,97613.00
2022-08-26T14:59:01.166Z,97609.91
2022-08-26T15:02:05.059Z,97607.50
2022-08-26T15:05:08.859Z,97606.13
2022-08-26T15:08:12.137Z,97592.09
2022-08-26T15:11:14.678Z,97592.19
2022-08-26T15:14:19.534Z,97577.94
2022-08-26T15:17:22.035Z,97580.50
2022-08-26T15:20:24.753Z,97557.72
2022-08-26T15:23:27.164Z,97543.06
2022-08-26T15:26:31.041Z,97531.78
2022-08-26T15:29:36.248Z,97520.44
2022-08-26T15:32:38.795Z,97521.53
2022-08-26T15:35:41.456Z,97528.19
2022-08-26T15:38:45.605Z,97515.69
2022-08-26T15:41:50.415Z,97510.44
2022-08-26T15:44:53.488Z,97509.63
2022-08-26T15:48:01.168Z,97504.88
2022-08-26T15:51:06.317Z,97502.16
2022-08-26T15:54:10.346Z,97503.59
2022-08-26T15:57:15.353Z,97503.56
2022-08-26T16:00:18.604Z,97500.69
2022-08-26T16:03:21.189Z,97495.69
2022-08-26T16:06:27.747Z,97499.34
2022-08-26T16:09:31.297Z,97503.03
2022-08-26T16:12:33.990Z,97507.94
2022-08-26T16:15:38.194Z,97514.41
2022-08-26T16:18:43.090Z,97514.94
2022-08-26T16:21:47.070Z,97509.50
2022-08-26T16:24:49.613Z,97505.72
2022-08-26T16:27:52.558Z,97501.13
2022-08-26T16:30:55.208Z,97493.53
2022-08-26T16:33:57.803Z,97485.66
2022-08-26T16:37:00.980Z,97488.91
2022-08-26T16:40:04.689Z,97488.38
2022-08-26T16:43:07.620Z,97486.41
2022-08-26T16:46:11.502Z,97486.13
2022-08-26T16:49:14.783Z,97481.00
2022-08-26T16:52:17.737Z,97482.47
2022-08-26T16:55:20.528Z,97477.91
2022-08-26T16:58:23.098Z,97484.88
2022-08-26T17:01:26.097Z,97481.00
2022-08-26T17:04:29.280Z,97479.22
2022-08-26T17:07:31.750Z,97485.53
2022-08-26T17:10:34.750Z,97483.63
2022-08-26T17:13:38.246Z,97481.47
2022-08-26T17:16:40.951Z,97484.63
2022-08-26T17:19:46.863Z,97485.94
2022-08-26T17:22:50.878Z,97493.47
2022-08-26T17:25:52.962Z,97484.50
2022-08-26T17:28:55.758Z,97492.34
2022-08-26T17:31:58.191Z,97497.63
2022-08-26T17:35:01.760Z,97500.25
2022-08-26T17:38:05.178Z,97503.75
2022-08-26T17:41:09.173Z,97510.69
2022-08-26T17:44:12.573Z,97512.06
2022-08-26T17:47:15.250Z,97513.63
2022-08-26T17:50:19.416Z,97517.66
2022-08-26T17:53:22.096Z,97515.47
2022-08-26T17:56:27.628Z,97528.56
2022-08-26T17:59:30.641Z,97520.47
2022-08-26T18:02:34.934Z,97521.16
2022-08-26T18:05:37.041Z,97531.19
2022-08-26T18:08:39.989Z,97528.44
2022-08-26T18:11:42.164Z,97536.06
2022-08-26T18:14:44.299Z,97547.06
2022-08-26T18:17:47.088Z,97544.97
2022-08-26T18:20:52.633Z,97548.22
2022-08-26T18:24:03.847Z,97551.34
2022-08-26T18:27:07.346Z,97558.09
2022-08-26T18:30:16.400Z,97544.88
2022-08-26T18:33:21.709Z,97555.16
2022-08-26T18:36:27.865Z,97553.13
2022-08-26T18:39:30.074Z,97548.41
2022-08-26T18:42:32.508Z,97550.19
2022-08-26T18:45:35.709Z,97560.09
2022-08-26T18:48:40.406Z,97559.28
2022-08-26T18:51:43.775Z,97554.00
2022-08-26T18:54:46.733Z,97565.13
2022-08-26T18:57:49.982Z,97562.63
2022-08-26T19:00:52.753Z,97563.34
2022-08-26T19:03:57.001Z,97563.34
2022-08-26T19:07:00.511Z,97556.78
2022-08-26T19:10:06.372Z,97546.97
2022-08-26T19:13:10.444Z,97558.22
2022-08-26T19:16:23.038Z,97552.56
2022-08-26T19:19:25.916Z,97562.66
2022-08-26T19:22:28.383Z,97560.84
2022-08-26T19:25:31.847Z,97561.97
2022-08-26T19:28:35.014Z,97565.88
2022-08-26T19:31:38.696Z,97573.47
2022-08-26T19:34:41.350Z,97570.59
2022-08-26T19:37:44.580Z,97572.13
2022-08-26T19:40:49.365Z,97575.34
2022-08-26T19:43:53.617Z,97567.25
2022-08-26T19:47:01.627Z,97572.94
2022-08-26T19:50:07.452Z,97570.19
2022-08-26T19:53:10.658Z,97573.00
2022-08-26T19:56:13.978Z,97582.31
2022-08-26T19:59:16.391Z,97584.19
2022-08-26T20:02:20.755Z,97582.28
2022-08-26T20:05:25.319Z,97581.94
2022-08-26T20:08:29.262Z,97582.31
2022-08-26T20:11:32.093Z,97585.78
2022-08-26T20:14:37.674Z,97583.25
2022-08-26T20:17:40.664Z,97582.56
2022-08-26T20:21:01.804Z,97591.53
2022-08-26T20:24:14.047Z,97590.34
2022-08-26T20:27:16.089Z,97598.03
2022-08-26T20:30:18.101Z,97598.97
2022-08-26T20:33:21.225Z,97599.06
2022-08-26T20:36:26.057Z,97607.91
2022-08-26T20:39:31.340Z,97605.50
2022-08-26T20:42:34.825Z,97603.38
2022-08-26T20:45:37.246Z,97605.94
2022-08-26T20:48:39.449Z,97601.75
2022-08-26T20:51:45.776Z,97605.13
2022-08-26T20:54:47.928Z,97602.31
2022-08-26T20:57:50.109Z,97600.59
2022-08-26T21:00:52.384Z,97598.50
2022-08-26T21:03:56.953Z,97601.25
2022-08-26T21:06:58.948Z,97601.38
2022-08-26T21:10:04.273Z,97600.09
2022-08-26T21:13:07.889Z,97597.09
2022-08-26T21:16:12.334Z,97601.19
2022-08-26T21:19:17.695Z,97596.41
2022-08-26T21:22:19.795Z,97593.38
2022-08-26T21:25:22.158Z,97589.78
2022-08-26T21:28:24.333Z,97585.16
2022-08-26T21:31:26.460Z,97583.28
2022-08-26T21:34:28.775Z,97592.81
2022-08-26T21:37:32.765Z,97581.53
2022-08-26T21:40:35.996Z,97574.09
2022-08-26T21:43:38.699Z,97576.66
2022-08-26T21:46:41.151Z,97567.94
2022-08-26T21:49:44.702Z,97569.88
2022-08-26T21:52:47.576Z,97560.69
2022-08-26T21:55:49.539Z,97556.72
2022-08-26T21:58:52.430Z,97557.78
2022-08-26T22:01:55.007Z,97555.56
2022-08-26T22:04:57.336Z,97554.50
2022-08-26T22:07:59.588Z,97546.38
2022-08-26T22:11:02.203Z,97543.13
2022-08-26T22:14:04.237Z,97543.94
2022-08-26T22:17:06.621Z,97546.13
2022-08-26T22:20:16.346Z,97549.56
2022-08-26T22:23:18.618Z,97547.25
2022-08-26T22:26:25.842Z,97547.97
2022-08-26T22:29:28.092Z,97551.94
2022-08-26T22:32:30.207Z,97545.22
2022-08-26T22:35:32.363Z,97548.66
2022-08-26T22:38:34.652Z,97550.22
2022-08-26T22:41:45.221Z,97549.22
2022-08-26T22:44:47.220Z,97552.94
2022-08-26T22:47:49.342Z,97549.22
2022-08-26T22:50:53.844Z,97555.72
2022-08-26T22:53:58.488Z,97556.91
2022-08-26T22:57:00.958Z,97554.13
2022-08-26T23:00:04.249Z,97551.31
2022-08-26T23:03:06.255Z,97542.28
2022-08-26T23:06:11.948Z,97542.72
2022-08-26T23:09:13.942Z,97546.03
2022-08-26T23:12:16.752Z,97546.47
2022-08-26T23:15:19.445Z,97541.66
2022-08-26T23:18:21.850Z,97540.84
2022-08-26T23:21:23.821Z,97544.56
2022-08-26T23:24:26.156Z,97543.59
2022-08-26T23:27:28.953Z,97532.22
2022-08-26T23:30:32.374Z,97531.78
2022-08-26T23:33:53.244Z,97533.72
2022-08-26T23:36:55.404Z,97531.25
2022-08-26T23:39:58.281Z,97521.41
2022-08-26T23:43:03.700Z,97522.00
2022-08-26T23:46:05.914Z,97519.09
2022-08-26T23:49:07.971Z,97525.63
2022-08-26T23:52:31.551Z,97525.09
2022-08-26T23:55:38.174Z,97520.88
2022-08-26T23:58:39.943Z,97522.44
